Time;durP1;ratioP1;P1;durP2;ratioP2;P2;SDS_P1;SDS_P2;PMS_P1;PMS_P2;Temp;Humidity;BMP_temperature;BMP_pressure;BME280_temperature;BME280_humidity;BME280_pressure;Samples;Min_cycle;Max_cycle;Signal;HPM_P1;HPM_P2
2023/07/25 00:00:25;;;;;;;1.33;0.73;;;12.50;99.90;;;;;;5056068;28;20095;-63
2023/07/25 00:02:51;;;;;;;1.67;0.90;;;12.50;99.90;;;;;;5034467;28;20493;-63
2023/07/25 00:05:16;;;;;;;1.08;0.55;;;12.50;99.90;;;;;;5034230;28;20393;-64
2023/07/25 00:07:42;;;;;;;1.35;0.52;;;12.50;99.90;;;;;;5033652;28;20048;-64
2023/07/25 00:10:08;;;;;;;3.85;0.88;;;12.50;99.90;;;;;;5034088;28;20072;-64
2023/07/25 00:12:35;;;;;;;7.68;1.10;;;12.50;99.90;;;;;;5034425;28;20450;-64
2023/07/25 00:15:02;;;;;;;3.17;0.82;;;12.50;99.90;;;;;;5057480;28;20040;-64
2023/07/25 00:17:28;;;;;;;4.30;1.08;;;12.60;99.90;;;;;;5054034;28;20036;-64
2023/07/25 00:19:54;;;;;;;1.05;0.82;;;12.50;99.90;;;;;;5065659;28;20089;-64
2023/07/25 00:22:19;;;;;;;1.02;0.60;;;12.50;99.90;;;;;;5073137;28;20412;-64
2023/07/25 00:24:45;;;;;;;1.38;0.80;;;12.50;99.90;;;;;;5092100;28;20043;-64
2023/07/25 00:27:11;;;;;;;2.35;0.75;;;12.40;99.90;;;;;;5085423;28;20056;-64
2023/07/25 00:29:37;;;;;;;1.75;0.82;;;12.30;99.90;;;;;;5090364;28;20059;-63
2023/07/25 00:32:03;;;;;;;0.80;0.52;;;12.30;99.90;;;;;;5093333;28;20478;-63
2023/07/25 00:34:29;;;;;;;3.38;0.82;;;12.20;99.90;;;;;;5094097;28;20046;-63
2023/07/25 00:36:55;;;;;;;1.13;0.60;;;12.10;99.90;;;;;;5088495;28;20536;-64
2023/07/25 00:39:21;;;;;;;2.33;0.68;;;12.10;99.90;;;;;;5091407;28;20592;-64
2023/07/25 00:41:46;;;;;;;1.05;0.82;;;11.90;99.90;;;;;;5091499;28;20098;-64
2023/07/25 00:44:12;;;;;;;1.85;0.60;;;11.90;99.90;;;;;;5073804;28;20043;-63
2023/07/25 00:46:39;;;;;;;1.27;0.73;;;11.80;99.90;;;;;;5091970;28;20035;-63
2023/07/25 00:49:06;;;;;;;1.15;0.60;;;11.80;99.90;;;;;;5073067;28;20078;-63
2023/07/25 00:51:32;;;;;;;0.77;0.40;;;11.80;99.90;;;;;;5069765;28;20477;-63
2023/07/25 00:53:58;;;;;;;1.48;0.63;;;11.70;99.90;;;;;;5053475;28;20036;-63
2023/07/25 00:56:24;;;;;;;1.90;0.90;;;11.70;99.90;;;;;;5052968;28;20036;-63
2023/07/25 00:58:50;;;;;;;3.30;0.68;;;11.70;99.90;;;;;;5055891;28;20357;-63
2023/07/25 01:01:15;;;;;;;1.90;0.60;;;11.70;99.90;;;;;;5073465;28;20040;-63
2023/07/25 01:03:41;;;;;;;5.57;1.20;;;11.60;99.90;;;;;;5091063;28;20056;-63
2023/07/25 01:06:11;;;;;;;5.38;0.80;;;11.70;99.90;;;;;;5091665;28;20458;-63
2023/07/25 01:08:51;;;;;;;1.98;1.00;;;11.70;99.90;;;;;;5091216;28;20048;-63
2023/07/25 01:11:17;;;;;;;0.68;0.47;;;11.70;99.90;;;;;;5090829;28;20068;-63
2023/07/25 01:13:43;;;;;;;0.90;0.57;;;11.70;99.90;;;;;;5056439;28;20392;-63
2023/07/25 01:16:12;;;;;;;1.98;0.82;;;11.80;99.90;;;;;;5061046;28;20040;-63
2023/07/25 01:18:39;;;;;;;0.82;0.40;;;11.80;99.90;;;;;;5076020;28;20067;-63
2023/07/25 01:21:05;;;;;;;2.08;0.60;;;11.90;99.90;;;;;;5111539;28;20040;-63
2023/07/25 01:23:32;;;;;;;4.03;1.05;;;12.10;99.90;;;;;;5111584;28;20047;-63
2023/07/25 01:25:58;;;;;;;1.90;0.93;;;12.20;99.90;;;;;;5092636;28;20061;-63
2023/07/25 01:28:24;;;;;;;0.75;0.70;;;12.30;99.90;;;;;;5112225;28;20048;-63
2023/07/25 01:30:50;;;;;;;1.10;0.60;;;12.40;99.90;;;;;;5093066;28;20108;-63
2023/07/25 01:33:16;;;;;;;1.73;0.60;;;12.50;99.90;;;;;;5088094;28;20039;-63
2023/07/25 01:35:42;;;;;;;4.22;0.68;;;12.50;99.90;;;;;;5073584;28;20044;-63
2023/07/25 01:38:08;;;;;;;0.93;0.70;;;12.60;99.90;;;;;;5072628;28;20404;-63
2023/07/25 01:40:33;;;;;;;0.82;0.50;;;12.60;99.90;;;;;;5073227;28;20047;-63
2023/07/25 01:42:59;;;;;;;2.53;0.68;;;12.70;99.90;;;;;;5091563;28;20142;-63
2023/07/25 01:45:25;;;;;;;2.47;0.68;;;12.70;99.90;;;;;;5091233;28;20469;-63
2023/07/25 01:47:51;;;;;;;3.42;1.00;;;12.80;99.90;;;;;;5069447;28;20044;-63
2023/07/25 01:50:17;;;;;;;2.65;1.10;;;12.80;99.90;;;;;;5057109;28;20508;-63
2023/07/25 01:52:43;;;;;;;1.63;0.73;;;12.80;99.90;;;;;;5074336;28;20520;-63
2023/07/25 01:55:09;;;;;;;4.25;1.25;;;12.80;99.90;;;;;;5040471;28;20071;-63
2023/07/25 01:57:35;;;;;;;3.50;0.93;;;12.90;99.90;;;;;;5057244;28;20103;-63
2023/07/25 02:00:00;;;;;;;1.20;0.75;;;12.90;99.90;;;;;;5068717;28;20123;-63
2023/07/25 02:02:26;;;;;;;1.15;0.68;;;12.90;99.90;;;;;;5094871;28;20108;-63
2023/07/25 02:04:52;;;;;;;1.80;0.77;;;12.90;99.90;;;;;;5076907;28;20096;-63
2023/07/25 02:07:18;;;;;;;1.40;0.80;;;13.00;99.90;;;;;;5076452;28;20032;-63
2023/07/25 02:09:44;;;;;;;1.02;0.50;;;13.00;99.90;;;;;;5076722;28;20046;-63
2023/07/25 02:12:10;;;;;;;1.30;0.70;;;13.00;99.90;;;;;;5066721;28;20070;-63
2023/07/25 02:14:36;;;;;;;0.82;0.70;;;13.00;99.90;;;;;;5056001;28;20044;-63
2023/07/25 02:17:01;;;;;;;2.15;0.82;;;13.00;99.90;;;;;;5074402;28;20036;-63
2023/07/25 02:19:27;;;;;;;3.10;1.05;;;13.00;99.90;;;;;;5074614;28;20090;-63
2023/07/25 02:21:53;;;;;;;1.77;0.77;;;13.10;99.90;;;;;;5074087;28;20040;-63
2023/07/25 02:24:19;;;;;;;4.30;0.85;;;13.10;99.90;;;;;;5074371;28;20439;-63
2023/07/25 02:26:45;;;;;;;1.25;0.65;;;13.10;99.90;;;;;;5027867;28;20140;-63
2023/07/25 02:29:10;;;;;;;2.80;0.65;;;13.10;99.90;;;;;;5019970;28;20037;-63
2023/07/25 02:31:36;;;;;;;1.88;0.98;;;13.10;99.90;;;;;;5020012;28;20119;-63
2023/07/25 02:34:02;;;;;;;1.45;0.63;;;13.00;99.90;;;;;;5019604;28;20048;-63
2023/07/25 02:36:28;;;;;;;1.60;0.82;;;13.10;99.90;;;;;;5054289;28;20098;-63
2023/07/25 02:38:54;;;;;;;4.45;0.70;;;13.10;99.90;;;;;;5019622;28;20094;-63
2023/07/25 02:41:19;;;;;;;3.90;0.75;;;13.00;99.90;;;;;;5035898;28;20102;-63
2023/07/25 02:43:45;;;;;;;2.25;1.23;;;13.10;99.90;;;;;;5037556;28;20040;-63
2023/07/25 02:46:11;;;;;;;3.58;0.88;;;13.10;99.90;;;;;;5056386;28;20044;-63
2023/07/25 02:48:37;;;;;;;1.83;0.80;;;13.00;99.90;;;;;;5073784;28;20040;-63
2023/07/25 02:51:03;;;;;;;3.97;0.90;;;13.10;99.90;;;;;;5055769;28;20072;-63
2023/07/25 02:53:29;;;;;;;3.35;0.75;;;13.00;99.90;;;;;;5055810;28;20047;-63
2023/07/25 02:55:55;;;;;;;3.45;0.82;;;13.00;99.90;;;;;;5055494;28;20040;-63
2023/07/25 02:58:21;;;;;;;2.53;0.88;;;13.00;99.90;;;;;;5073683;28;20033;-63
2023/07/25 03:00:49;;;;;;;1.75;0.70;;;13.00;99.90;;;;;;5055049;28;20060;-63
2023/07/25 03:03:15;;;;;;;0.80;0.60;;;13.00;99.90;;;;;;5055152;28;20044;-63
2023/07/25 03:05:41;;;;;;;0.90;0.68;;;13.00;99.90;;;;;;5073423;28;20036;-63
2023/07/25 03:08:07;;;;;;;2.33;0.80;;;13.00;99.90;;;;;;5055554;28;20105;-63
2023/07/25 03:10:33;;;;;;;1.48;0.60;;;13.00;99.90;;;;;;5055136;28;20052;-63
2023/07/25 03:12:59;;;;;;;1.58;0.65;;;13.00;99.90;;;;;;5055734;28;20032;-63
2023/07/25 03:15:25;;;;;;;1.10;0.50;;;13.00;99.90;;;;;;5074743;28;20537;-63
2023/07/25 03:17:51;;;;;;;1.67;0.55;;;13.00;99.90;;;;;;5093254;28;20036;-63
2023/07/25 03:20:17;;;;;;;1.23;0.70;;;13.10;99.90;;;;;;5076864;28;20045;-64
2023/07/25 03:22:42;;;;;;;1.42;0.55;;;13.00;99.90;;;;;;5054507;28;20075;-64
2023/07/25 03:25:09;;;;;;;4.35;0.57;;;13.10;99.90;;;;;;5038639;28;20079;-64
2023/07/25 03:27:35;;;;;;;1.98;0.47;;;13.10;99.90;;;;;;5073016;28;20056;-63
2023/07/25 03:30:01;;;;;;;2.80;0.85;;;13.10;99.90;;;;;;5074433;28;20093;-63
2023/07/25 03:32:27;;;;;;;3.50;0.85;;;13.00;99.90;;;;;;5075054;28;20036;-63
2023/07/25 03:34:52;;;;;;;1.23;0.43;;;13.10;99.90;;;;;;5058044;28;20040;-63
2023/07/25 03:37:18;;;;;;;1.83;0.73;;;13.00;99.90;;;;;;5092520;28;20051;-64
2023/07/25 03:39:44;;;;;;;1.42;0.60;;;13.10;99.90;;;;;;5074988;28;20039;-64
2023/07/25 03:42:10;;;;;;;2.45;0.63;;;13.10;99.90;;;;;;5074580;28;20096;-63
2023/07/25 03:44:36;;;;;;;0.88;0.77;;;13.10;99.90;;;;;;5074188;28;20127;-63
2023/07/25 03:47:02;;;;;;;4.35;0.82;;;13.10;99.90;;;;;;5092708;28;20044;-63
2023/07/25 03:49:28;;;;;;;4.50;0.70;;;13.10;99.90;;;;;;5057817;28;20607;-63
2023/07/25 03:51:53;;;;;;;3.55;0.60;;;13.00;99.90;;;;;;5057392;28;20040;-63
2023/07/25 03:54:23;;;;;;;1.13;0.60;;;12.90;99.90;;;;;;5057798;28;20508;-63
2023/07/25 03:56:50;;;;;;;1.23;0.60;;;12.90;99.90;;;;;;5092826;28;20133;-63
2023/07/25 03:59:17;;;;;;;4.03;0.98;;;12.90;99.90;;;;;;5092372;28;20043;-63
2023/07/25 04:01:43;;;;;;;0.75;0.40;;;12.80;99.90;;;;;;5054440;28;20051;-63
2023/07/25 04:04:09;;;;;;;3.50;1.02;;;12.80;99.90;;;;;;5063618;28;20067;-63
2023/07/25 04:06:36;;;;;;;3.65;0.50;;;12.70;99.90;;;;;;5094041;28;20556;-63
2023/07/25 04:09:02;;;;;;;1.38;0.80;;;12.70;99.90;;;;;;5112695;28;20031;-63
2023/07/25 04:11:28;;;;;;;1.92;0.90;;;12.70;99.90;;;;;;5093842;28;20628;-63
2023/07/25 04:13:54;;;;;;;1.05;0.65;;;12.70;99.90;;;;;;5094130;28;20561;-63
2023/07/25 04:16:20;;;;;;;1.40;0.80;;;12.70;99.90;;;;;;5112747;28;20075;-63
2023/07/25 04:18:47;;;;;;;2.47;0.90;;;12.70;99.90;;;;;;5093843;28;20032;-63
2023/07/25 04:21:12;;;;;;;3.08;0.70;;;12.70;99.90;;;;;;5094148;28;20130;-63
2023/07/25 04:23:38;;;;;;;2.92;0.95;;;12.70;99.90;;;;;;5093088;28;20075;-63
2023/07/25 04:26:04;;;;;;;6.38;1.23;;;12.70;99.90;;;;;;5090972;28;20052;-63
2023/07/25 04:28:30;;;;;;;0.63;0.43;;;12.70;99.90;;;;;;5073651;28;20113;-63
2023/07/25 04:30:56;;;;;;;3.78;0.70;;;12.70;99.90;;;;;;5073601;28;20044;-63
2023/07/25 04:33:21;;;;;;;2.22;0.82;;;12.70;99.90;;;;;;5091647;28;20032;-63
2023/07/25 04:35:47;;;;;;;1.48;0.55;;;12.70;99.90;;;;;;5073626;28;20468;-63
2023/07/25 04:38:14;;;;;;;3.40;0.90;;;12.70;99.90;;;;;;5091832;28;20086;-63
2023/07/25 04:40:40;;;;;;;1.65;0.82;;;12.80;99.90;;;;;;5072952;28;20044;-63
2023/07/25 04:43:05;;;;;;;1.40;0.77;;;12.80;99.90;;;;;;5073744;28;20042;-65
2023/07/25 04:45:31;;;;;;;2.83;0.98;;;12.80;99.90;;;;;;5073239;28;20036;-63
2023/07/25 04:47:57;;;;;;;2.63;0.70;;;12.90;99.90;;;;;;5072874;28;20079;-63
2023/07/25 04:50:23;;;;;;;1.33;0.82;;;13.00;99.90;;;;;;5056436;28;20536;-63
2023/07/25 04:52:49;;;;;;;2.97;1.25;;;13.10;99.90;;;;;;5091660;28;20032;-63
2023/07/25 04:55:14;;;;;;;1.60;0.63;;;13.20;99.90;;;;;;5072591;28;20036;-63
2023/07/25 04:57:40;;;;;;;1.15;0.85;;;13.30;99.90;;;;;;5072961;28;20040;-63
2023/07/25 05:00:07;;;;;;;5.97;1.13;;;13.30;99.90;;;;;;5072478;28;20039;-64
2023/07/25 05:02:33;;;;;;;1.10;0.85;;;13.30;99.90;;;;;;5038913;28;20051;-64
2023/07/25 05:04:59;;;;;;;1.48;0.85;;;13.40;99.90;;;;;;5073018;28;20040;-64
2023/07/25 05:07:25;;;;;;;1.35;0.93;;;13.40;99.90;;;;;;5072706;28;20152;-64
2023/07/25 05:09:50;;;;;;;1.05;0.70;;;13.40;99.90;;;;;;5090306;28;20040;-64
2023/07/25 05:12:16;;;;;;;3.45;0.70;;;13.50;99.90;;;;;;5090934;28;20040;-64
2023/07/25 05:14:42;;;;;;;1.52;0.80;;;13.50;99.90;;;;;;5072109;28;20123;-64
2023/07/25 05:17:08;;;;;;;4.50;1.05;;;13.60;99.90;;;;;;5081688;28;20041;-64
2023/07/25 05:19:33;;;;;;;3.55;0.98;;;13.60;99.90;;;;;;5052644;28;20047;-64
2023/07/25 05:21:59;;;;;;;1.23;0.80;;;13.60;99.90;;;;;;5051702;28;20041;-64
2023/07/25 05:24:25;;;;;;;1.48;0.70;;;13.50;99.90;;;;;;5051872;28;20037;-64
2023/07/25 05:26:51;;;;;;;0.85;0.68;;;13.60;99.90;;;;;;5052238;28;20480;-64
2023/07/25 05:29:17;;;;;;;1.33;0.65;;;13.60;99.90;;;;;;5050840;28;20115;-64
2023/07/25 05:31:43;;;;;;;1.88;1.08;;;13.60;99.90;;;;;;5070228;28;20039;-64
2023/07/25 05:34:09;;;;;;;1.83;0.95;;;13.70;99.90;;;;;;5042685;28;20055;-63
2023/07/25 05:36:36;;;;;;;1.55;0.60;;;13.80;99.90;;;;;;5073005;28;20040;-64
2023/07/25 05:39:02;;;;;;;1.85;0.80;;;13.90;99.90;;;;;;5073338;28;20040;-64
2023/07/25 05:41:28;;;;;;;1.25;0.52;;;13.90;99.90;;;;;;5091128;28;20042;-64
2023/07/25 05:43:54;;;;;;;6.53;0.80;;;14.00;99.90;;;;;;5090446;28;20075;-63
2023/07/25 05:46:19;;;;;;;2.28;1.42;;;14.00;99.90;;;;;;5072478;28;20089;-63
2023/07/25 05:48:45;;;;;;;1.90;0.40;;;14.10;99.90;;;;;;5090942;28;20123;-63
2023/07/25 05:51:11;;;;;;;2.20;0.55;;;14.20;99.90;;;;;;5072325;28;20040;-64
2023/07/25 05:53:37;;;;;;;2.42;0.65;;;14.30;99.90;;;;;;5072831;28;20040;-64
2023/07/25 05:56:03;;;;;;;0.82;0.52;;;14.40;99.90;;;;;;5072716;28;20040;-64
2023/07/25 05:58:29;;;;;;;0.47;0.30;;;14.40;99.90;;;;;;5072572;28;20036;-63
2023/07/25 06:00:55;;;;;;;4.70;0.73;;;14.50;99.90;;;;;;5056127;28;20097;-64
2023/07/25 06:03:21;;;;;;;0.30;0.20;;;14.60;99.90;;;;;;5073146;28;20488;-64
2023/07/25 06:05:47;;;;;;;0.82;0.22;;;14.70;99.90;;;;;;5072839;28;20129;-63
2023/07/25 06:08:13;;;;;;;0.55;0.40;;;14.70;99.90;;;;;;5072933;28;20177;-64
2023/07/25 06:10:39;;;;;;;1.75;0.45;;;14.80;99.90;;;;;;5072616;28;20119;-63
2023/07/25 06:13:06;;;;;;;0.30;0.20;;;14.90;99.90;;;;;;5053913;28;20032;-63
2023/07/25 06:15:34;;;;;;;0.90;0.75;;;15.00;99.90;;;;;;5052542;28;20040;-63
2023/07/25 06:18:01;;;;;;;0.60;0.32;;;15.10;99.90;;;;;;5036320;28;20040;-64
2023/07/25 06:20:27;;;;;;;0.22;0.20;;;15.20;99.90;;;;;;5052898;28;20052;-64
2023/07/25 06:22:53;;;;;;;2.15;0.30;;;15.30;99.90;;;;;;5058533;28;20044;-64
2023/07/25 06:25:19;;;;;;;0.65;0.30;;;15.40;99.90;;;;;;5072456;28;20051;-63
2023/07/25 06:27:45;;;;;;;1.73;0.40;;;15.50;99.90;;;;;;5085880;28;20059;-63
2023/07/25 06:30:11;;;;;;;1.55;0.35;;;15.60;99.90;;;;;;5061126;28;20522;-64
2023/07/25 06:32:39;;;;;;;0.10;0.10;;;15.70;99.90;;;;;;5049457;28;20054;-64
2023/07/25 06:35:05;;;;;;;0.35;0.20;;;15.70;99.90;;;;;;5093052;28;20036;-64
2023/07/25 06:37:35;;;;;;;2.53;0.30;;;15.70;99.90;;;;;;5094078;28;20656;-64
2023/07/25 06:40:01;;;;;;;0.50;0.43;;;15.80;99.90;;;;;;5076003;28;20032;-64
2023/07/25 06:42:28;;;;;;;0.73;0.40;;;15.90;99.90;;;;;;5093702;28;20063;-64
2023/07/25 06:44:55;;;;;;;0.43;0.20;;;16.00;99.90;;;;;;5075989;28;20404;-64
2023/07/25 06:47:21;;;;;;;0.38;0.15;;;16.30;99.90;;;;;;5075723;28;20043;-64
2023/07/25 06:49:46;;;;;;;3.63;0.38;;;16.50;99.90;;;;;;5088292;28;20040;-64
2023/07/25 06:52:12;;;;;;;0.25;0.15;;;16.70;99.90;;;;;;5094028;28;20047;-64
2023/07/25 06:54:39;;;;;;;0.10;0.10;;;16.90;99.90;;;;;;5075214;28;20036;-64
2023/07/25 06:57:05;;;;;;;0.65;0.40;;;17.20;99.90;;;;;;5075865;28;20047;-64
2023/07/25 06:59:31;;;;;;;0.20;0.17;;;17.50;99.90;;;;;;5101913;28;20039;-64
2023/07/25 07:01:57;;;;;;;0.45;0.28;;;17.70;99.90;;;;;;5076713;28;20036;-64
2023/07/25 07:04:23;;;;;;;1.73;0.20;;;17.90;99.90;;;;;;5058118;28;20047;-64
2023/07/25 07:06:48;;;;;;;0.32;0.20;;;18.00;99.90;;;;;;5074157;28;20047;-64
2023/07/25 07:09:14;;;;;;;0.52;0.13;;;18.20;99.90;;;;;;5074035;28;20079;-64
2023/07/25 07:11:41;;;;;;;1.48;0.20;;;18.30;99.90;;;;;;5074771;28;20040;-64
2023/07/25 07:14:07;;;;;;;0.00;0.00;;;18.50;99.90;;;;;;5074198;28;20043;-64
2023/07/25 07:16:33;;;;;;;0.10;0.10;;;18.70;99.90;;;;;;5058651;28;20040;-64
2023/07/25 07:18:58;;;;;;;1.52;0.43;;;18.90;99.90;;;;;;5074905;28;20032;-64
2023/07/25 07:21:24;;;;;;;0.52;0.10;;;19.00;99.90;;;;;;5074849;28;20083;-64
2023/07/25 07:23:50;;;;;;;1.20;0.38;;;18.90;99.90;;;;;;5093169;28;20040;-64
2023/07/25 07:26:16;;;;;;;0.22;0.10;;;18.80;99.90;;;;;;5092863;28;20135;-64
2023/07/25 07:28:42;;;;;;;0.20;0.10;;;18.50;99.90;;;;;;5092585;28;20314;-64
2023/07/25 07:31:21;;;;;;;0.20;0.10;;;18.20;99.90;;;;;;5092511;28;20437;-64
2023/07/25 07:33:47;;;;;;;0.10;0.10;;;17.90;99.90;;;;;;5074624;28;20032;-64
2023/07/25 07:36:13;;;;;;;2.33;0.57;;;17.70;99.90;;;;;;5057068;28;20516;-64
2023/07/25 07:38:39;;;;;;;1.30;0.60;;;17.60;99.90;;;;;;5074383;28;20040;-64
2023/07/25 07:41:04;;;;;;;0.45;0.10;;;17.70;99.90;;;;;;5092797;28;20050;-64
2023/07/25 07:43:30;;;;;;;3.28;0.40;;;17.80;99.90;;;;;;5053655;28;20067;-64
2023/07/25 07:45:57;;;;;;;1.08;0.40;;;17.80;99.90;;;;;;5053730;28;20070;-64
2023/07/25 07:48:23;;;;;;;0.20;0.10;;;17.70;99.90;;;;;;5054488;28;20041;-64
2023/07/25 07:50:49;;;;;;;2.00;0.55;;;17.90;99.90;;;;;;5071308;28;20051;-65
2023/07/25 07:53:16;;;;;;;18.65;1.95;;;18.20;99.90;;;;;;5053977;28;20067;-64
2023/07/25 07:55:41;;;;;;;6.32;2.35;;;18.40;99.90;;;;;;5037332;28;20194;-64
2023/07/25 07:58:09;;;;;;;0.90;0.10;;;18.70;99.90;;;;;;5072171;28;20541;-64
2023/07/25 08:00:34;;;;;;;2.05;0.30;;;19.00;99.90;;;;;;5053962;28;20119;-64
2023/07/25 08:03:00;;;;;;;1.23;0.10;;;19.10;99.90;;;;;;5053591;28;20186;-64
2023/07/25 08:05:26;;;;;;;0.55;0.30;;;19.30;99.90;;;;;;5036902;28;20130;-65
2023/07/25 08:07:52;;;;;;;1.25;0.30;;;19.60;99.90;;;;;;5071877;28;20055;-64
2023/07/25 08:10:18;;;;;;;0.88;0.20;;;19.80;99.90;;;;;;5053298;28;20036;-65
2023/07/25 08:12:44;;;;;;;0.10;0.10;;;20.00;99.90;;;;;;5054092;28;20472;-64
2023/07/25 08:15:09;;;;;;;0.10;0.10;;;20.10;99.90;;;;;;5053577;28;20087;-64
2023/07/25 08:17:35;;;;;;;0.70;0.30;;;20.20;99.90;;;;;;5071618;28;20068;-64
2023/07/25 08:20:01;;;;;;;0.20;0.10;;;20.40;99.90;;;;;;5054220;28;20856;-64
2023/07/25 08:22:27;;;;;;;0.60;0.20;;;20.60;99.90;;;;;;5053994;28;20132;-64
2023/07/25 08:24:53;;;;;;;2.30;0.20;;;20.70;99.90;;;;;;5053590;28;20037;-65
2023/07/25 08:27:20;;;;;;;2.58;0.30;;;20.80;99.90;;;;;;5053710;28;20096;-65
2023/07/25 08:29:45;;;;;;;3.38;0.40;;;20.70;99.90;;;;;;5072224;28;20123;-65
2023/07/25 08:32:11;;;;;;;3.13;0.43;;;20.40;99.90;;;;;;5073523;28;20131;-65
2023/07/25 08:34:38;;;;;;;0.47;0.20;;;20.00;99.90;;;;;;5073579;28;20162;-65
2023/07/25 08:37:05;;;;;;;0.65;0.10;;;19.70;99.90;;;;;;5072531;28;20040;-64
2023/07/25 08:39:31;;;;;;;0.05;0.00;;;19.60;99.90;;;;;;5090610;28;20062;-64
2023/07/25 08:41:58;;;;;;;1.08;0.30;;;19.80;99.90;;;;;;5072361;28;20552;-64
2023/07/25 08:44:26;;;;;;;0.20;0.05;;;20.10;99.90;;;;;;5072637;28;20071;-64
2023/07/25 08:46:53;;;;;;;0.10;0.00;;;20.30;99.90;;;;;;5072504;28;20046;-65
2023/07/25 08:49:24;;;;;;;0.20;0.10;;;20.30;99.90;;;;;;5052812;28;20370;-65
2023/07/25 08:51:54;;;;;;;0.17;0.10;;;20.40;99.90;;;;;;5070572;28;20090;-64
2023/07/25 08:54:36;;;;;;;0.50;0.10;;;20.60;99.90;;;;;;5071361;28;20040;-64
2023/07/25 08:57:04;;;;;;;0.82;0.25;;;20.80;99.90;;;;;;5053031;28;20087;-65
2023/07/25 08:59:31;;;;;;;0.13;0.08;;;20.90;99.90;;;;;;5058658;28;20480;-65
2023/07/25 09:01:57;;;;;;;0.65;0.00;;;21.00;99.90;;;;;;5052090;28;20090;-65
2023/07/25 09:04:25;;;;;;;1.88;0.20;;;21.20;99.90;;;;;;5051535;28;20396;-65
2023/07/25 09:06:51;;;;;;;0.47;0.10;;;21.00;99.90;;;;;;5051150;28;20520;-65
2023/07/25 09:09:17;;;;;;;0.85;0.10;;;20.70;99.90;;;;;;5051332;28;20041;-65
2023/07/25 09:11:44;;;;;;;2.00;0.30;;;20.30;99.90;;;;;;5051453;28;20052;-65
2023/07/25 09:14:11;;;;;;;1.27;0.20;;;20.20;99.90;;;;;;5051295;28;20068;-65
2023/07/25 09:16:38;;;;;;;0.38;0.10;;;20.20;99.90;;;;;;5069463;28;20067;-65
2023/07/25 09:19:04;;;;;;;0.60;0.40;;;20.00;99.90;;;;;;5051111;28;20067;-65
2023/07/25 09:21:29;;;;;;;0.85;0.17;;;19.70;99.90;;;;;;5034177;28;20076;-65
2023/07/25 09:23:56;;;;;;;0.38;0.10;;;19.40;99.90;;;;;;5051174;28;20051;-65
2023/07/25 09:26:24;;;;;;;2.60;0.15;;;19.10;99.90;;;;;;5051032;28;20413;-64
2023/07/25 09:28:55;;;;;;;1.13;0.20;;;19.00;99.90;;;;;;5050599;28;20530;-65
2023/07/25 09:31:22;;;;;;;1.00;0.50;;;19.10;99.90;;;;;;5034349;28;20041;-65
2023/07/25 09:33:49;;;;;;;0.80;0.20;;;19.50;99.90;;;;;;5050306;28;20565;-65
2023/07/25 09:36:15;;;;;;;1.77;0.20;;;19.70;99.90;;;;;;5071521;28;20037;-64
2023/07/25 09:39:00;;;;;;;2.42;0.10;;;19.70;99.90;;;;;;5055231;28;20036;-65
2023/07/25 09:41:27;;;;;;;2.38;0.30;;;19.70;99.90;;;;;;5069782;28;20040;-65
2023/07/25 09:43:53;;;;;;;0.15;0.15;;;20.00;99.90;;;;;;5089702;28;20048;-65
2023/07/25 09:46:19;;;;;;;0.63;0.32;;;20.40;99.90;;;;;;5090245;28;20036;-65
2023/07/25 09:48:47;;;;;;;0.22;0.15;;;20.70;99.90;;;;;;5071811;28;20105;-65
2023/07/25 09:51:14;;;;;;;2.33;0.30;;;20.80;99.90;;;;;;5090105;28;20040;-65
2023/07/25 09:53:45;;;;;;;1.30;0.22;;;20.90;99.90;;;;;;5072348;28;20067;-65
2023/07/25 09:56:11;;;;;;;3.63;0.30;;;21.20;99.90;;;;;;5068272;28;20040;-65
2023/07/25 09:58:38;;;;;;;0.13;0.10;;;21.00;99.90;;;;;;5052442;28;20047;-65
2023/07/25 10:01:04;;;;;;;1.00;0.30;;;20.50;99.90;;;;;;5089557;28;20043;-64
2023/07/25 10:03:30;;;;;;;0.45;0.28;;;20.00;99.80;;;;;;5071341;28;20043;-64
2023/07/25 10:06:00;;;;;;;0.25;0.10;;;20.00;99.90;;;;;;5071963;28;20044;-65
2023/07/25 10:08:29;;;;;;;0.30;0.10;;;20.30;99.90;;;;;;5071613;28;20040;-65
2023/07/25 10:10:56;;;;;;;0.35;0.20;;;20.80;99.90;;;;;;5074666;28;20123;-65
2023/07/25 10:13:23;;;;;;;0.35;0.10;;;21.10;99.90;;;;;;5075550;28;20126;-65
2023/07/25 10:15:50;;;;;;;1.92;0.28;;;21.60;99.90;;;;;;5075320;28;20071;-65
2023/07/25 10:18:24;;;;;;;0.40;0.20;;;21.90;99.90;;;;;;5058878;28;20050;-65
2023/07/25 10:20:51;;;;;;;0.38;0.20;;;22.20;98.30;;;;;;5074703;28;20054;-65
2023/07/25 10:23:17;;;;;;;2.30;0.32;;;22.40;98.70;;;;;;5093731;28;20051;-65
2023/07/25 10:25:43;;;;;;;0.50;0.10;;;22.60;97.80;;;;;;5093867;28;20064;-65
2023/07/25 10:28:10;;;;;;;0.20;0.10;;;22.90;97.60;;;;;;5094312;28;20382;-65
2023/07/25 10:30:47;;;;;;;0.22;0.10;;;23.10;96.50;;;;;;5074348;28;20101;-65
2023/07/25 10:33:15;;;;;;;0.10;0.10;;;22.80;95.30;;;;;;5092974;28;20072;-65
2023/07/25 10:35:52;;;;;;;2.20;0.20;;;22.30;96.60;;;;;;5074955;28;20040;-65
2023/07/25 10:38:40;;;;;;;0.90;0.20;;;21.90;96.50;;;;;;5056253;28;20493;-65
2023/07/25 10:41:10;;;;;;;0.10;0.10;;;21.50;95.10;;;;;;5073236;28;20135;-65
2023/07/25 10:43:46;;;;;;;1.13;0.45;;;21.20;96.00;;;;;;5054830;28;20149;-65
2023/07/25 10:46:14;;;;;;;0.20;0.00;;;20.90;96.50;;;;;;5054812;28;20080;-65
2023/07/25 10:48:45;;;;;;;0.20;0.10;;;20.70;97.60;;;;;;5037955;28;20135;-65
2023/07/25 10:51:12;;;;;;;1.38;0.30;;;20.40;97.00;;;;;;5072072;28;20044;-65
2023/07/25 10:53:39;;;;;;;0.17;0.08;;;20.30;97.30;;;;;;5099225;28;20035;-65
2023/07/25 10:56:05;;;;;;;0.20;0.10;;;20.20;97.60;;;;;;5087221;28;20077;-64
2023/07/25 10:58:57;;;;;;;2.10;0.30;;;20.30;98.10;;;;;;5074626;28;20449;-65
2023/07/25 11:01:46;;;;;;;1.70;0.20;;;20.40;97.80;;;;;;5072509;28;20055;-65
2023/07/25 11:04:31;;;;;;;0.20;0.10;;;20.40;97.70;;;;;;5054745;28;20506;-65
2023/07/25 11:07:09;;;;;;;0.38;0.10;;;20.30;97.50;;;;;;5054913;28;20523;-65
2023/07/25 11:09:42;;;;;;;2.35;0.30;;;20.50;98.20;;;;;;5073508;28;20032;-65
2023/07/25 11:12:10;;;;;;;2.10;0.25;;;20.80;97.80;;;;;;5054762;28;20042;-65
2023/07/25 11:14:43;;;;;;;2.72;0.10;;;20.80;97.60;;;;;;5055427;28;20059;-65
2023/07/25 11:17:11;;;;;;;1.38;0.60;;;20.70;97.00;;;;;;5071940;28;20048;-65
2023/07/25 11:19:37;;;;;;;0.40;0.15;;;20.50;96.90;;;;;;5054887;28;20505;-65
2023/07/25 11:22:10;;;;;;;3.40;0.35;;;20.30;96.80;;;;;;5053911;28;20052;-65
2023/07/25 11:24:43;;;;;;;0.57;0.10;;;20.40;97.10;;;;;;5073390;28;20396;-65
2023/07/25 11:27:10;;;;;;;1.50;0.50;;;20.30;96.90;;;;;;5054856;28;20158;-65
2023/07/25 11:29:36;;;;;;;2.38;0.22;;;20.10;96.70;;;;;;5038596;28;20048;-65
2023/07/25 11:32:02;;;;;;;1.10;0.20;;;19.80;96.70;;;;;;5055014;28;20041;-65
2023/07/25 11:34:28;;;;;;;0.20;0.10;;;19.70;97.10;;;;;;5071948;28;20118;-65
2023/07/25 11:36:54;;;;;;;0.03;0.03;;;19.50;97.50;;;;;;5075102;28;20480;-65
2023/07/25 11:39:21;;;;;;;2.10;0.20;;;19.50;98.30;;;;;;5074935;28;20137;-65
2023/07/25 11:41:47;;;;;;;0.77;0.28;;;19.50;98.10;;;;;;5074195;28;20118;-64
2023/07/25 11:44:16;;;;;;;0.20;0.20;;;19.30;98.30;;;;;;5074833;28;20444;-64
2023/07/25 11:46:44;;;;;;;0.82;0.20;;;19.20;98.30;;;;;;5074483;28;20166;-65
2023/07/25 11:49:15;;;;;;;2.13;0.53;;;19.00;98.60;;;;;;5093256;28;20123;-65
2023/07/25 11:51:41;;;;;;;0.30;0.20;;;19.00;99.20;;;;;;5071663;28;20044;-65
2023/07/25 11:54:08;;;;;;;0.30;0.17;;;18.90;99.40;;;;;;5072315;28;20028;-65
2023/07/25 11:56:35;;;;;;;0.20;0.20;;;18.90;99.20;;;;;;5054291;28;20040;-65
2023/07/25 11:59:01;;;;;;;0.38;0.20;;;19.00;99.70;;;;;;5078770;28;20031;-66
2023/07/25 12:01:29;;;;;;;0.20;0.10;;;19.10;99.90;;;;;;5094345;28;20134;-66
2023/07/25 12:03:55;;;;;;;1.88;0.20;;;19.20;99.60;;;;;;5094559;28;20118;-64
2023/07/25 12:06:31;;;;;;;0.20;0.10;;;19.20;99.60;;;;;;5113012;28;20058;-65
2023/07/25 12:08:59;;;;;;;0.20;0.10;;;19.00;98.40;;;;;;5093965;28;20039;-65
2023/07/25 12:11:25;;;;;;;1.15;0.25;;;18.60;99.30;;;;;;5094568;28;20530;-65
2023/07/25 12:13:55;;;;;;;0.68;0.40;;;18.30;99.70;;;;;;5094293;28;20118;-65
2023/07/25 12:16:31;;;;;;;0.15;0.10;;;18.00;99.90;;;;;;5093609;28;20123;-64
2023/07/25 12:19:00;;;;;;;0.40;0.17;;;17.70;99.90;;;;;;5059747;28;20041;-64
2023/07/25 12:21:28;;;;;;;0.75;0.17;;;17.50;99.90;;;;;;5053675;28;20083;-64
2023/07/25 12:23:57;;;;;;;0.32;0.10;;;17.30;99.90;;;;;;5070874;28;20045;-64
2023/07/25 12:26:22;;;;;;;0.90;0.35;;;17.10;99.90;;;;;;5059947;28;20133;-64
2023/07/25 12:28:50;;;;;;;0.45;0.40;;;16.90;99.90;;;;;;5054354;28;20488;-64
2023/07/25 12:31:16;;;;;;;0.20;0.10;;;16.80;99.90;;;;;;5069749;28;20102;-64
2023/07/25 12:33:47;;;;;;;0.45;0.20;;;16.80;99.90;;;;;;5036425;28;20071;-64
2023/07/25 12:36:15;;;;;;;0.73;0.20;;;16.70;99.90;;;;;;5054777;28;20076;-64
2023/07/25 12:38:41;;;;;;;0.20;0.20;;;16.50;99.90;;;;;;5073395;28;20051;-64
2023/07/25 12:41:07;;;;;;;0.40;0.17;;;16.40;99.90;;;;;;5073039;28;20075;-64
2023/07/25 12:43:33;;;;;;;1.88;0.40;;;16.30;99.90;;;;;;5090355;28;20055;-64
2023/07/25 12:46:00;;;;;;;0.95;0.40;;;16.20;99.90;;;;;;5073036;28;20036;-64